createdAt,value
2019-02-04T00:00:07.430Z,13.57
2019-02-04T00:02:38.917Z,14.27
2019-02-04T00:05:10.380Z,13.73
2019-02-04T00:07:41.772Z,10.30
2019-02-04T00:10:13.524Z,10.60
2019-02-04T00:12:44.765Z,10.30
2019-02-04T00:15:16.234Z,18.37
2019-02-04T00:17:47.493Z,27.83
2019-02-04T00:20:18.758Z,16.97
2019-02-04T00:22:50.000Z,21.23
2019-02-04T00:25:21.641Z,11.87
2019-02-04T00:27:53.045Z,11.20
2019-02-04T00:30:24.613Z,11.73
2019-02-04T00:32:55.856Z,7.57
2019-02-04T00:35:27.470Z,7.17
2019-02-04T00:37:58.720Z,6.23
2019-02-04T00:40:30.445Z,5.13
2019-02-04T00:43:01.873Z,7.00
2019-02-04T00:45:33.073Z,5.60
2019-02-04T00:48:04.521Z,9.20
2019-02-04T00:50:35.789Z,7.33
2019-02-04T00:53:07.496Z,8.53
2019-02-04T00:55:38.753Z,10.30
2019-02-04T00:58:09.958Z,9.23
2019-02-04T01:00:41.405Z,9.57
2019-02-04T01:03:13.658Z,10.20
2019-02-04T01:05:45.396Z,9.53
2019-02-04T01:08:16.834Z,7.73
2019-02-04T01:10:48.052Z,15.37
2019-02-04T01:13:20.339Z,13.10
2019-02-04T01:15:51.640Z,10.57
2019-02-04T01:18:23.184Z,8.27
2019-02-04T01:20:54.428Z,7.73
2019-02-04T01:23:25.681Z,10.90
2019-02-04T01:25:56.924Z,8.80
2019-02-04T01:28:28.169Z,8.70
2019-02-04T01:31:00.596Z,11.67
2019-02-04T01:33:31.847Z,11.70
2019-02-04T01:36:03.088Z,10.60
2019-02-04T01:38:34.349Z,7.43
2019-02-04T01:41:05.789Z,9.17
2019-02-04T01:43:37.001Z,7.50
2019-02-04T01:46:08.242Z,10.50
2019-02-04T01:48:39.498Z,8.00
2019-02-04T01:51:10.744Z,6.50
2019-02-04T01:53:41.981Z,7.17
2019-02-04T01:56:13.278Z,6.50
2019-02-04T01:58:44.503Z,6.43
2019-02-04T03:00:57.851Z,6.33
2019-02-04T03:03:29.113Z,10.30
2019-02-04T03:06:00.621Z,8.10
2019-02-04T03:08:32.138Z,8.50
2019-02-04T03:11:03.453Z,8.47
2019-02-04T03:13:34.678Z,7.37
2019-02-04T03:16:07.032Z,6.60
2019-02-04T03:18:38.308Z,7.13
2019-02-04T03:21:09.593Z,6.00
2019-02-04T03:23:40.849Z,8.67
2019-02-04T03:26:12.121Z,6.57
2019-02-04T03:28:43.389Z,6.37
2019-02-04T03:31:15.364Z,7.30
2019-02-04T03:33:46.613Z,6.10
2019-02-04T03:36:17.959Z,7.93
2019-02-04T03:38:50.221Z,6.73
2019-02-04T03:41:21.503Z,7.60
2019-02-04T03:43:52.775Z,6.73
2019-02-04T03:46:24.281Z,8.13
2019-02-04T03:48:55.547Z,8.33
2019-02-04T03:51:26.772Z,8.30
2019-02-04T03:53:58.034Z,5.63
2019-02-04T03:56:29.458Z,9.50
2019-02-04T03:59:00.815Z,7.90
2019-02-04T04:01:32.173Z,9.07
2019-02-04T04:04:03.709Z,8.17
2019-02-04T04:06:35.592Z,8.53
2019-02-04T04:09:08.474Z,7.97
2019-02-04T04:11:39.850Z,8.50
2019-02-04T04:14:11.578Z,9.83
2019-02-04T04:16:42.899Z,7.00
2019-02-04T04:19:14.484Z,7.73
2019-02-04T04:21:46.025Z,9.20
2019-02-04T04:24:17.471Z,10.60
2019-02-04T04:26:48.759Z,9.23
2019-02-04T04:29:20.479Z,7.80
2019-02-04T04:31:51.984Z,12.83
2019-02-04T04:34:23.264Z,16.57
2019-02-04T04:36:54.545Z,15.40
2019-02-04T04:39:25.782Z,10.53
2019-02-04T04:41:57.050Z,6.83
2019-02-04T04:44:28.599Z,8.30
2019-02-04T04:46:59.816Z,13.13
2019-02-04T04:49:31.100Z,15.50
2019-02-04T04:52:02.471Z,9.13
2019-02-04T04:54:33.732Z,8.67
2019-02-04T04:57:05.265Z,12.13
2019-02-04T04:59:36.545Z,17.40
2019-02-04T05:02:07.868Z,9.93
2019-02-04T05:04:39.164Z,8.10
2019-02-04T05:07:10.410Z,8.17
2019-02-04T05:09:41.980Z,7.93
2019-02-04T05:12:13.223Z,12.10
2019-02-04T05:14:45.589Z,8.87
2019-02-04T05:17:16.885Z,7.97
2019-02-04T05:19:48.464Z,8.27
2019-02-04T05:22:19.723Z,10.53
2019-02-04T05:24:51.169Z,11.13
2019-02-04T05:27:22.441Z,7.50
2019-02-04T05:29:53.694Z,8.67
2019-02-04T05:32:24.921Z,12.53
2019-02-04T05:34:57.527Z,8.43
2019-02-04T05:37:28.993Z,7.80
2019-02-04T05:40:00.450Z,7.73
2019-02-04T05:42:34.434Z,10.63
2019-02-04T05:45:04.990Z,7.77
2019-02-04T05:47:36.327Z,9.30
2019-02-04T05:50:09.720Z,11.00
2019-02-04T05:52:40.970Z,11.83
2019-02-04T05:55:13.517Z,11.17
2019-02-04T05:57:44.986Z,23.10
2019-02-04T06:00:33.502Z,16.47
2019-02-04T06:03:05.005Z,13.90
2019-02-04T06:05:36.273Z,8.90
2019-02-04T06:08:08.520Z,9.47
2019-02-04T06:10:39.898Z,11.40
2019-02-04T06:13:11.157Z,8.83
2019-02-04T06:15:42.401Z,7.83
2019-02-04T06:18:13.838Z,10.17
2019-02-04T06:20:45.083Z,12.47
2019-02-04T06:23:16.339Z,10.83
2019-02-04T06:25:47.579Z,8.83
2019-02-04T06:28:19.274Z,9.00
2019-02-04T06:30:50.561Z,8.97
2019-02-04T06:33:21.993Z,10.17
2019-02-04T06:35:53.266Z,12.33
2019-02-04T06:38:24.493Z,10.47
2019-02-04T06:40:56.039Z,13.00
2019-02-04T06:43:27.330Z,15.47
2019-02-04T06:45:58.622Z,9.17
2019-02-04T06:48:29.906Z,9.03
2019-02-04T06:51:01.170Z,8.37
2019-02-04T06:53:32.440Z,14.00
2019-02-04T06:56:03.710Z,11.63
2019-02-04T06:58:35.980Z,11.97
2019-02-04T07:01:07.362Z,9.23
2019-02-04T07:03:38.657Z,11.00
2019-02-04T07:06:10.366Z,9.67
2019-02-04T07:08:42.061Z,11.23
2019-02-04T07:11:13.383Z,11.83
2019-02-04T07:13:44.635Z,11.47
2019-02-04T07:16:15.878Z,12.27
2019-02-04T07:18:47.200Z,13.53
2019-02-04T07:21:21.070Z,19.37
2019-02-04T07:23:51.409Z,15.77
2019-02-04T07:26:22.717Z,11.97
2019-02-04T07:28:53.945Z,13.63
2019-02-04T07:31:26.418Z,13.17
2019-02-04T07:33:58.133Z,14.57
2019-02-04T07:36:29.422Z,19.23
2019-02-04T07:39:00.869Z,23.90
2019-02-04T07:41:32.159Z,26.20
2019-02-04T07:44:03.571Z,27.00
2019-02-04T07:46:35.106Z,23.23
2019-02-04T07:49:06.565Z,18.30
2019-02-04T07:51:37.874Z,19.57
2019-02-04T07:54:09.264Z,18.17
2019-02-04T07:56:40.573Z,17.20
2019-02-04T07:59:11.875Z,12.80
2019-02-04T08:01:43.185Z,12.87
2019-02-04T08:04:14.522Z,21.50
2019-02-04T08:06:45.770Z,27.37
2019-02-04T08:09:17.184Z,27.80
2019-02-04T08:11:48.505Z,23.27
2019-02-04T08:14:19.799Z,12.63
2019-02-04T08:16:51.185Z,11.53
2019-02-04T08:19:23.356Z,11.33
2019-02-04T08:21:54.673Z,17.67
2019-02-04T08:24:26.015Z,18.00
2019-02-04T08:26:58.267Z,23.40
2019-02-04T08:29:29.546Z,19.47
2019-02-04T08:32:00.869Z,27.43
2019-02-04T08:34:32.559Z,25.40
2019-02-04T08:37:03.813Z,17.73
2019-02-04T08:39:35.080Z,12.93
2019-02-04T08:42:06.462Z,10.83
2019-02-04T08:44:37.754Z,14.00
2019-02-04T08:47:08.988Z,14.03
2019-02-04T08:49:40.370Z,14.20
2019-02-04T08:52:11.938Z,10.57
2019-02-04T08:54:43.227Z,12.43
2019-02-04T08:57:14.530Z,12.33
2019-02-04T08:59:45.756Z,13.83
2019-02-04T09:02:17.391Z,11.57
2019-02-04T09:04:49.073Z,10.90
2019-02-04T09:07:20.336Z,12.90
2019-02-04T09:09:51.650Z,17.07
2019-02-04T09:12:22.909Z,17.73
2019-02-04T09:14:54.496Z,12.47
2019-02-04T09:17:25.834Z,12.87
2019-02-04T09:19:57.094Z,13.40
2019-02-04T09:22:28.469Z,11.33
2019-02-04T09:25:00.861Z,12.27
2019-02-04T09:27:32.157Z,17.17
2019-02-04T09:30:03.791Z,13.10
2019-02-04T09:32:36.084Z,13.63
2019-02-04T09:35:14.093Z,12.53
2019-02-04T09:37:44.681Z,14.50
2019-02-04T09:40:19.479Z,11.17
2019-02-04T09:42:51.049Z,10.77
2019-02-04T09:45:26.964Z,13.00
2019-02-04T09:47:55.222Z,13.00
2019-02-04T09:50:27.029Z,13.73
2019-02-04T09:52:59.333Z,16.33
2019-02-04T09:55:33.354Z,16.90
2019-02-04T09:58:05.436Z,18.10
2019-02-04T10:00:37.978Z,20.17
2019-02-04T10:03:09.445Z,19.73
2019-02-04T10:05:40.849Z,18.10
2019-02-04T10:08:12.132Z,14.57
2019-02-04T10:10:43.420Z,22.97
2019-02-04T10:13:14.695Z,19.77
2019-02-04T10:15:46.261Z,15.50
2019-02-04T10:18:18.678Z,14.80
2019-02-04T10:20:49.954Z,15.03
2019-02-04T10:23:21.206Z,17.73
2019-02-04T10:25:52.516Z,14.97
2019-02-04T10:28:23.976Z,15.93
2019-02-04T10:30:56.189Z,14.63
2019-02-04T10:33:27.388Z,17.50
2019-02-04T10:35:58.781Z,23.93
2019-02-04T10:38:30.051Z,31.67
2019-02-04T10:41:01.317Z,18.40
2019-02-04T10:43:32.678Z,17.90
2019-02-04T10:46:04.954Z,20.27
2019-02-04T10:48:36.330Z,21.97
2019-02-04T10:51:10.104Z,19.17
2019-02-04T10:53:41.643Z,17.37
2019-02-04T10:56:13.182Z,19.17
2019-02-04T10:58:45.572Z,19.70
2019-02-04T11:01:17.094Z,15.90
2019-02-04T11:03:48.384Z,15.13
2019-02-04T11:06:19.742Z,24.00
2019-02-04T11:08:51.357Z,13.57
2019-02-04T11:11:22.686Z,18.67
2019-02-04T11:13:54.383Z,16.00
2019-02-04T11:16:25.839Z,15.30
2019-02-04T11:18:57.114Z,16.13
2019-02-04T11:21:28.786Z,15.10
2019-02-04T11:24:00.082Z,13.60
2019-02-04T11:26:31.461Z,13.37
2019-02-04T11:29:02.786Z,18.30
2019-02-04T11:31:34.045Z,12.37
2019-02-04T11:34:05.801Z,12.47
2019-02-04T11:36:37.101Z,19.77
2019-02-04T11:39:09.982Z,18.03
2019-02-04T11:41:41.432Z,10.53
2019-02-04T11:44:12.798Z,10.87
2019-02-04T11:46:44.038Z,9.07
2019-02-04T11:49:15.285Z,18.17
2019-02-04T11:51:46.974Z,15.80
2019-02-04T11:54:18.256Z,13.50
2019-02-04T11:56:49.563Z,12.20
2019-02-04T11:59:20.819Z,7.20
2019-02-04T12:01:52.166Z,6.50
2019-02-04T12:04:23.424Z,6.60
2019-02-04T12:06:54.858Z,5.10
2019-02-04T12:09:26.131Z,9.63
2019-02-04T12:11:57.677Z,13.30
2019-02-04T12:14:28.965Z,17.70
2019-02-04T12:17:00.398Z,8.90
2019-02-04T12:19:31.647Z,6.33
2019-02-04T12:22:04.104Z,5.60
2019-02-04T12:24:35.488Z,4.97
2019-02-04T12:27:06.708Z,5.70
2019-02-04T12:29:38.262Z,4.70
2019-02-04T12:32:09.542Z,4.80
2019-02-04T12:34:40.809Z,5.57
2019-02-04T12:37:12.465Z,4.47
2019-02-04T12:39:43.888Z,4.03
2019-02-04T12:42:15.232Z,3.30
2019-02-04T12:44:46.489Z,4.53
2019-02-04T12:47:18.919Z,5.00
2019-02-04T12:49:50.487Z,4.33
2019-02-04T12:52:21.708Z,3.50
2019-02-04T12:54:52.966Z,12.00
2019-02-04T12:57:24.229Z,3.63
2019-02-04T12:59:56.337Z,3.17
2019-02-04T13:02:27.576Z,3.60
2019-02-04T13:04:58.968Z,6.33
2019-02-04T13:07:30.230Z,5.03
2019-02-04T13:10:01.450Z,3.33
2019-02-04T13:12:33.717Z,5.57
2019-02-04T13:15:05.845Z,3.23
2019-02-04T13:17:38.105Z,2.40
2019-02-04T13:20:10.357Z,3.00
2019-02-04T13:22:41.708Z,3.37
2019-02-04T13:25:15.588Z,4.03
2019-02-04T13:27:47.049Z,6.37
2019-02-04T13:30:20.012Z,4.00
2019-02-04T13:32:51.406Z,4.60
2019-02-04T13:35:22.861Z,5.20
2019-02-04T13:37:54.427Z,5.80
2019-02-04T13:40:28.929Z,4.30
2019-02-04T13:43:00.570Z,6.73
2019-02-04T13:45:32.138Z,3.93
2019-02-04T13:48:03.698Z,4.07
2019-02-04T13:50:35.369Z,3.73
2019-02-04T13:53:06.949Z,6.33
2019-02-04T13:55:38.926Z,6.17
2019-02-04T13:58:10.845Z,4.30
2019-02-04T14:00:47.604Z,6.17
2019-02-04T14:03:24.198Z,4.40
2019-02-04T14:05:59.639Z,5.13
2019-02-04T14:08:33.342Z,5.90
2019-02-04T14:11:06.987Z,13.80
2019-02-04T14:13:44.786Z,5.07
2019-02-04T14:16:17.163Z,9.97
2019-02-04T14:19:03.558Z,6.53
2019-02-04T14:21:41.642Z,6.33
2019-02-04T14:24:15.141Z,29.47
2019-02-04T14:26:53.318Z,9.77
2019-02-04T14:29:34.445Z,6.40
2019-02-04T14:32:19.409Z,26.50
2019-02-04T14:34:54.675Z,18.63
2019-02-04T14:37:41.099Z,7.90
2019-02-04T14:40:20.489Z,8.00
2019-02-04T14:43:04.885Z,14.93
2019-02-04T14:46:03.026Z,4.33
2019-02-04T14:49:19.315Z,3.60
2019-02-04T14:52:24.155Z,6.23
2019-02-04T14:55:58.780Z,9.07
2019-02-04T14:58:47.740Z,6.33
2019-02-04T15:02:07.217Z,3.10
2019-02-04T15:05:45.431Z,3.43
2019-02-04T15:09:11.256Z,4.10
2019-02-04T15:12:23.613Z,2.30
2019-02-04T15:15:31.200Z,3.60
2019-02-04T15:18:54.121Z,2.20
2019-02-04T15:22:10.928Z,3.20
2019-02-04T15:25:27.031Z,3.43
2019-02-04T15:28:29.715Z,3.30
2019-02-04T15:31:50.426Z,8.60
2019-02-04T15:35:20.020Z,2.40
2019-02-04T15:38:05.935Z,2.13
2019-02-04T15:41:04.700Z,2.07
2019-02-04T15:44:10.381Z,2.47
2019-02-04T15:47:15.724Z,2.13
2019-02-04T15:50:25.368Z,5.00
2019-02-04T15:53:17.355Z,5.97
2019-02-04T15:56:00.015Z,3.87
2019-02-04T15:58:37.193Z,8.30
2019-02-04T16:01:14.563Z,10.77
2019-02-04T16:03:50.433Z,5.57
2019-02-04T16:06:32.875Z,3.57
2019-02-04T16:09:08.381Z,2.93
2019-02-04T16:11:54.635Z,6.80
2019-02-04T16:14:43.846Z,3.47
2019-02-04T16:17:17.958Z,2.80
2019-02-04T16:20:08.352Z,5.33
2019-02-04T16:22:57.411Z,4.00
2019-02-04T16:25:25.354Z,23.87
2019-02-04T16:28:02.155Z,4.13
2019-02-04T16:30:36.572Z,29.42
2019-02-04T16:33:13.654Z,5.77
2019-02-04T16:35:47.663Z,4.20
2019-02-04T16:38:27.818Z,33.07
2019-02-04T16:41:04.283Z,10.47
2019-02-04T16:43:46.794Z,5.27
2019-02-04T16:46:26.336Z,2.47
2019-02-04T16:49:08.635Z,2.10
2019-02-04T16:51:54.529Z,6.30
2019-02-04T16:54:35.904Z,6.47
2019-02-04T16:57:18.927Z,4.83
2019-02-04T17:00:04.004Z,3.20
2019-02-04T17:02:44.565Z,3.93
2019-02-04T17:05:27.179Z,2.47
2019-02-04T17:08:11.223Z,2.97
2019-02-04T17:10:49.431Z,3.07
2019-02-04T17:13:29.421Z,4.17
2019-02-04T17:16:05.849Z,3.33
2019-02-04T17:18:46.256Z,3.57
2019-02-04T17:21:31.413Z,2.57
2019-02-04T17:24:13.565Z,2.70
2019-02-04T17:26:49.235Z,2.20
2019-02-04T17:29:38.601Z,2.40
2019-02-04T17:32:18.634Z,4.33
2019-02-04T17:35:01.548Z,6.30
2019-02-04T17:37:49.405Z,13.63
2019-02-04T17:40:30.064Z,8.93
2019-02-04T17:43:20.698Z,5.70
2019-02-04T17:45:58.898Z,4.20
2019-02-04T17:48:36.356Z,4.43
2019-02-04T17:51:12.127Z,5.83
2019-02-04T17:54:01.280Z,8.73
2019-02-04T17:56:42.164Z,7.37
2019-02-04T17:59:23.027Z,7.77
2019-02-04T18:02:00.456Z,9.37
2019-02-04T18:04:48.329Z,9.20
2019-02-04T18:07:31.349Z,7.43
2019-02-04T18:10:18.405Z,7.67
2019-02-04T18:12:59.176Z,6.80
2019-02-04T18:15:38.517Z,9.23
2019-02-04T18:18:15.790Z,8.83
2019-02-04T18:20:55.042Z,10.13
2019-02-04T18:26:23.113Z,9.23
2019-02-04T18:29:02.747Z,8.47
2019-02-04T18:31:50.391Z,10.40
2019-02-04T18:34:27.560Z,8.60
2019-02-04T18:37:07.572Z,14.07
2019-02-04T18:39:47.541Z,10.23
2019-02-04T18:42:24.552Z,6.47
2019-02-04T18:45:11.476Z,6.43
2019-02-04T18:47:50.892Z,5.23
2019-02-04T18:50:29.371Z,5.00
2019-02-04T18:53:21.410Z,4.90
2019-02-04T18:55:58.187Z,8.07
2019-02-04T18:59:02.692Z,9.63
2019-02-04T19:01:37.753Z,6.93
2019-02-04T19:04:11.694Z,8.53
2019-02-04T19:06:49.392Z,7.20
2019-02-04T19:09:31.786Z,5.63
2019-02-04T19:12:05.592Z,6.90
2019-02-04T19:14:47.895Z,10.33
2019-02-04T19:17:26.411Z,13.30
2019-02-04T19:20:09.787Z,14.03
2019-02-04T19:22:43.763Z,12.77
2019-02-04T19:25:32.915Z,11.60
2019-02-04T19:28:12.985Z,11.47
2019-02-04T19:31:13.821Z,16.37
2019-02-04T19:33:52.243Z,10.40
2019-02-04T19:36:30.367Z,9.57
2019-02-04T19:39:10.099Z,8.07
2019-02-04T19:41:57.424Z,5.40
2019-02-04T19:44:34.167Z,4.80
2019-02-04T19:47:08.218Z,5.43
2019-02-04T19:49:44.133Z,3.90
2019-02-04T19:52:28.522Z,7.47
2019-02-04T19:55:11.166Z,9.80
2019-02-04T19:57:56.306Z,10.47
2019-02-04T20:00:34.638Z,10.13
2019-02-04T20:03:20.589Z,7.70
2019-02-04T20:05:58.607Z,7.87
2019-02-04T20:08:36.200Z,10.03
2019-02-04T20:11:34.274Z,10.60
2019-02-04T20:14:21.657Z,8.07
2019-02-04T20:17:00.058Z,8.70
2019-02-04T20:19:35.347Z,9.13
2019-02-04T20:22:19.867Z,9.77
2019-02-04T20:25:06.062Z,9.73
2019-02-04T20:27:49.935Z,9.17
2019-02-04T20:30:24.969Z,12.80
2019-02-04T20:33:00.874Z,9.77
2019-02-04T20:35:47.840Z,23.43
2019-02-04T20:38:27.202Z,7.70
2019-02-04T20:41:10.297Z,11.43
2019-02-04T20:43:51.061Z,11.57
2019-02-04T20:46:27.836Z,9.17
2019-02-04T20:49:07.164Z,9.70
2019-02-04T20:51:42.012Z,7.97
2019-02-04T20:54:30.148Z,9.07
2019-02-04T20:57:07.332Z,11.97
2019-02-04T20:59:41.088Z,11.60
2019-02-04T21:02:33.365Z,10.50
2019-02-04T21:05:22.363Z,7.10
2019-02-04T21:08:18.448Z,10.97
2019-02-04T21:11:02.832Z,7.30
2019-02-04T21:13:40.106Z,5.47
2019-02-04T21:16:19.543Z,6.07
2019-02-04T21:19:02.769Z,11.70
2019-02-04T21:21:41.592Z,10.87
2019-02-04T21:24:19.392Z,6.80
2019-02-04T21:26:58.523Z,9.83
2019-02-04T21:29:40.724Z,11.53
2019-02-04T21:32:19.109Z,8.07
2019-02-04T21:35:06.461Z,5.50
2019-02-04T21:37:42.895Z,5.60
2019-02-04T21:40:22.134Z,5.27
2019-02-04T21:43:18.459Z,6.63
2019-02-04T21:45:57.086Z,5.90
2019-02-04T21:48:39.595Z,6.80
2019-02-04T21:51:23.129Z,8.43
2019-02-04T21:53:57.036Z,10.73
2019-02-04T21:56:46.616Z,8.17
2019-02-04T21:59:26.256Z,12.67
2019-02-04T22:02:03.656Z,13.43
2019-02-04T22:04:45.349Z,12.20
2019-02-04T22:07:32.649Z,9.03
2019-02-04T22:10:13.116Z,7.63
2019-02-04T22:12:53.626Z,7.30
2019-02-04T22:15:30.587Z,7.77
2019-02-04T22:18:03.622Z,9.83
2019-02-04T22:20:38.450Z,9.43
2019-02-04T22:23:13.447Z,7.00
2019-02-04T22:25:46.489Z,10.30
2019-02-04T22:28:17.900Z,8.90
2019-02-04T22:30:51.447Z,9.83
2019-02-04T22:33:23.193Z,9.40
2019-02-04T22:35:54.772Z,8.93
2019-02-04T22:38:26.461Z,8.43
2019-02-04T22:40:58.131Z,8.67
2019-02-04T22:43:29.372Z,7.37
2019-02-04T22:46:00.937Z,12.07
2019-02-04T22:48:32.237Z,7.10
2019-02-04T22:51:06.890Z,11.43
2019-02-04T22:53:38.503Z,12.80
2019-02-04T22:56:09.792Z,9.90
2019-02-04T22:58:41.561Z,9.73
2019-02-04T23:01:48.581Z,7.37
2019-02-04T23:04:20.178Z,6.80
2019-02-04T23:06:51.576Z,6.23
2019-02-04T23:09:22.940Z,8.30
2019-02-04T23:11:54.177Z,8.10
2019-02-04T23:14:26.496Z,7.70
2019-02-04T23:16:59.169Z,7.53
2019-02-04T23:19:30.517Z,8.20
2019-02-04T23:22:01.869Z,8.13
2019-02-04T23:24:33.122Z,9.07
2019-02-04T23:27:05.406Z,7.83
2019-02-04T23:29:37.616Z,5.67
2019-02-04T23:32:08.991Z,6.80
2019-02-04T23:34:40.236Z,6.90
2019-02-04T23:37:11.508Z,6.53
2019-02-04T23:39:42.700Z,7.60
2019-02-04T23:42:14.113Z,12.43
2019-02-04T23:44:45.369Z,8.27
2019-02-04T23:47:16.646Z,8.93
2019-02-04T23:49:47.888Z,7.20
2019-02-04T23:52:19.170Z,7.27
2019-02-04T23:54:50.425Z,9.17
2019-02-04T23:57:22.684Z,8.73
2019-02-04T23:59:54.929Z,8.60
